Time,TemperatureF,DewpointF,PressureIn,WindDirection,WindDirectionDegrees,WindSpeedMPH,WindSpeedGustMPH,Humidity,HourlyPrecipIn,Conditions,Clouds,dailyrainin,SoftwareType,DateUTC
2013-03-17 00:02:00,33.6,27.5,29.57,NNE,22,5.5,5.8,78,0.00,,---,0.00,VWS V14.00,2013-03-17 05:02:00,
2013-03-17 00:07:00,33.6,27.5,29.57,NNE,22,1.7,4.6,78,0.00,,---,0.00,VWS V14.00,2013-03-17 05:07:00,
2013-03-17 00:12:00,33.6,27.5,29.57,NNE,22,5.3,5.8,78,0.00,,---,0.00,VWS V14.00,2013-03-17 05:12:00,
2013-03-17 00:17:00,33.6,27.5,29.57,NE,45,6.4,7.3,78,0.00,,---,0.00,VWS V14.00,2013-03-17 05:17:00,
2013-03-17 00:22:00,33.6,27.5,29.57,NNE,22,8.0,8.0,78,0.00,,---,0.00,VWS V14.00,2013-03-17 05:22:00,
2013-03-17 00:27:00,33.6,27.5,29.58,NNE,22,2.0,3.1,78,0.00,,---,0.00,VWS V14.00,2013-03-17 05:27:00,
2013-03-17 00:32:00,33.6,27.5,29.58,North,0,7.3,7.3,78,0.00,,---,0.00,VWS V14.00,2013-03-17 05:32:00,
2013-03-17 00:37:00,33.6,27.5,29.58,NNE,22,6.0,6.0,78,0.00,,---,0.00,VWS V14.00,2013-03-17 05:37:00,
2013-03-17 00:42:00,33.4,27.3,29.57,NE,45,10.9,10.9,78,0.00,,---,0.00,VWS V14.00,2013-03-17 05:42:00,
2013-03-17 00:47:00,33.4,27.3,29.57,North,0,4.0,8.5,78,0.00,,---,0.00,VWS V14.00,2013-03-17 05:47:00,
2013-03-17 00:52:00,33.4,27.3,29.57,NNE,22,5.5,5.5,78,0.00,,---,0.00,VWS V14.00,2013-03-17 05:52:00,
2013-03-17 00:57:00,33.2,27.1,29.57,NNE,22,8.0,8.2,78,0.00,,---,0.00,VWS V14.00,2013-03-17 05:57:00,
2013-03-17 01:02:00,33.2,27.1,29.57,NNE,22,7.1,7.1,78,0.00,,---,0.00,VWS V14.00,2013-03-17 06:02:00,
2013-03-17 01:07:00,33.0,26.9,29.57,NNE,22,5.8,7.6,78,0.00,,---,0.00,VWS V14.00,2013-03-17 06:07:00,
2013-03-17 01:12:00,33.0,26.9,29.58,NNE,22,2.0,2.4,78,0.00,,---,0.00,VWS V14.00,2013-03-17 06:12:00,
2013-03-17 01:17:00,33.0,26.9,29.58,NE,45,9.8,9.8,78,0.00,,---,0.00,VWS V14.00,2013-03-17 06:17:00,
2013-03-17 01:22:00,33.0,26.9,29.58,NNE,22,3.1,4.0,78,0.00,,---,0.00,VWS V14.00,2013-03-17 06:22:00,
2013-03-17 01:27:00,32.9,26.8,29.58,North,0,3.1,5.3,78,0.00,,---,0.00,VWS V14.00,2013-03-17 06:27:00,
2013-03-17 01:32:00,32.9,26.8,29.58,NNE,22,7.3,7.8,78,0.00,,---,0.00,VWS V14.00,2013-03-17 06:32:00,
2013-03-17 01:37:00,32.9,26.8,29.58,NNE,22,4.0,4.0,78,0.00,,---,0.00,VWS V14.00,2013-03-17 06:37:00,
2013-03-17 01:42:00,32.9,26.8,29.58,NNE,22,8.5,8.5,78,0.00,,---,0.00,VWS V14.00,2013-03-17 06:42:00,
2013-03-17 01:47:00,32.7,26.6,29.58,NNE,22,7.6,7.6,78,0.00,,---,0.00,VWS V14.00,2013-03-17 06:47:00,
2013-03-17 01:52:00,32.7,26.6,29.58,NNE,22,7.3,7.3,78,0.00,,---,0.00,VWS V14.00,2013-03-17 06:52:00,
2013-03-17 01:57:00,32.7,26.6,29.59,NNE,22,4.6,5.3,78,0.00,,---,0.00,VWS V14.00,2013-03-17 06:57:00,
2013-03-17 02:02:00,32.5,26.1,29.59,NNE,22,0.8,2.4,77,0.00,,---,0.00,VWS V14.00,2013-03-17 07:02:00,
2013-03-17 02:08:00,32.5,26.1,29.59,NNE,22,7.1,7.1,77,0.00,,---,0.00,VWS V14.00,2013-03-17 07:08:00,
2013-03-17 02:13:00,32.1,25.7,29.59,NNE,22,6.2,9.1,77,0.00,,---,0.00,VWS V14.00,2013-03-17 07:13:00,
2013-03-17 02:18:00,32.1,25.7,29.59,NNE,22,4.4,4.6,77,0.00,,---,0.00,VWS V14.00,2013-03-17 07:18:00,
2013-03-17 02:23:00,32.1,25.4,29.59,NNE,22,6.9,6.9,76,0.00,,---,0.00,VWS V14.00,2013-03-17 07:23:00,
2013-03-17 02:28:00,32.1,25.4,29.59,NNE,22,6.2,6.9,76,0.00,,---,0.00,VWS V14.00,2013-03-17 07:28:00,
2013-03-17 02:33:00,32.1,25.4,29.60,NNE,22,6.0,6.2,76,0.00,,---,0.00,VWS V14.00,2013-03-17 07:33:00,
2013-03-17 02:38:00,32.1,25.4,29.59,NNE,22,5.8,5.8,76,0.00,,---,0.00,VWS V14.00,2013-03-17 07:38:00,
2013-03-17 02:43:00,31.8,25.1,29.59,NNE,22,4.0,4.4,76,0.00,,---,0.00,VWS V14.00,2013-03-17 07:43:00,
2013-03-17 02:48:00,31.8,24.8,29.59,NE,45,4.0,5.5,75,0.00,,---,0.00,VWS V14.00,2013-03-17 07:48:00,
2013-03-17 02:53:00,31.8,24.8,29.59,NNE,22,5.5,6.4,75,0.00,,---,0.00,VWS V14.00,2013-03-17 07:53:00,
2013-03-17 02:58:00,31.8,24.8,29.59,NNE,22,5.5,7.1,75,0.00,,---,0.00,VWS V14.00,2013-03-17 07:58:00,
2013-03-17 03:03:00,31.8,24.8,29.59,NNE,22,6.0,6.7,75,0.00,,---,0.00,VWS V14.00,2013-03-17 08:03:00,
2013-03-17 03:08:00,31.8,24.8,29.59,NNE,22,4.9,4.9,75,0.00,,---,0.00,VWS V14.00,2013-03-17 08:08:00,
2013-03-17 03:13:00,31.8,24.8,29.60,NE,45,3.5,3.5,75,0.00,,---,0.00,VWS V14.00,2013-03-17 08:13:00,
2013-03-17 03:18:00,31.8,24.8,29.59,NNE,22,6.2,6.2,75,0.00,,---,0.00,VWS V14.00,2013-03-17 08:18:00,
2013-03-17 03:23:00,31.8,24.8,29.59,NE,45,0.0,0.0,75,0.00,,---,0.00,VWS V14.00,2013-03-17 08:23:00,
2013-03-17 03:28:00,31.8,24.8,29.60,NE,45,3.5,4.9,75,0.00,,---,0.00,VWS V14.00,2013-03-17 08:28:00,
2013-03-17 03:33:00,31.8,25.1,29.59,NE,45,0.6,2.2,76,0.00,,---,0.00,VWS V14.00,2013-03-17 08:33:00,
2013-03-17 03:38:00,31.8,25.1,29.59,NE,45,0.0,0.0,76,0.00,,---,0.00,VWS V14.00,2013-03-17 08:38:00,
2013-03-17 03:43:00,31.8,25.1,29.59,NE,45,5.3,5.3,76,0.00,,---,0.00,VWS V14.00,2013-03-17 08:43:00,
2013-03-17 03:48:00,31.8,25.1,29.59,NNE,22,5.8,5.8,76,0.00,,---,0.00,VWS V14.00,2013-03-17 08:48:00,
2013-03-17 03:53:00,31.6,24.9,29.60,NNE,22,6.7,6.7,76,0.00,,---,0.00,VWS V14.00,2013-03-17 08:53:00,
2013-03-17 03:58:00,31.6,24.9,29.60,ENE,68,3.3,3.3,76,0.00,,---,0.00,VWS V14.00,2013-03-17 08:58:00,
2013-03-17 04:03:00,31.6,24.6,29.59,NE,45,6.9,6.9,75,0.00,,---,0.00,VWS V14.00,2013-03-17 09:03:00,
2013-03-17 04:08:00,31.6,24.6,29.60,North,0,0.0,6.4,75,0.00,,---,0.00,VWS V14.00,2013-03-17 09:08:00,
2013-03-17 04:13:00,31.6,24.6,29.59,NNE,22,8.2,8.2,75,0.00,,---,0.00,VWS V14.00,2013-03-17 09:13:00,
2013-03-17 04:18:00,31.6,24.6,29.59,NNE,22,5.3,5.3,75,0.00,,---,0.00,VWS V14.00,2013-03-17 09:18:00,
2013-03-17 04:23:00,31.6,24.9,29.61,NE,45,2.9,3.1,76,0.00,,---,0.00,VWS V14.00,2013-03-17 09:23:00,
2013-03-17 04:28:00,31.6,24.9,29.61,NNE,22,1.7,2.4,76,0.00,,---,0.00,VWS V14.00,2013-03-17 09:28:00,
2013-03-17 04:33:00,31.6,24.6,29.61,North,0,2.4,3.5,75,0.00,,---,0.00,VWS V14.00,2013-03-17 09:33:00,
2013-03-17 04:38:00,31.6,24.9,29.61,NNE,22,0.0,0.0,76,0.00,,---,0.00,VWS V14.00,2013-03-17 09:38:00,
2013-03-17 04:43:00,31.6,24.6,29.62,NNE,22,0.0,0.0,75,0.00,,---,0.00,VWS V14.00,2013-03-17 09:43:00,
2013-03-17 04:48:00,31.6,24.6,29.62,NNE,22,3.3,3.3,75,0.00,,---,0.00,VWS V14.00,2013-03-17 09:48:00,
2013-03-17 04:53:00,31.6,24.6,29.61,NNE,22,6.7,7.6,75,0.00,,---,0.00,VWS V14.00,2013-03-17 09:53:00,
2013-03-17 04:58:00,31.6,24.6,29.61,NE,45,8.5,8.5,75,0.00,,---,0.00,VWS V14.00,2013-03-17 09:58:00,
2013-03-17 05:03:00,31.6,24.6,29.61,NNE,22,6.7,7.3,75,0.00,,---,0.00,VWS V14.00,2013-03-17 10:03:00,
2013-03-17 05:08:00,31.6,24.6,29.61,NNE,22,6.9,6.9,75,0.00,,---,0.00,VWS V14.00,2013-03-17 10:08:00,
2013-03-17 05:13:00,31.4,24.4,29.60,NNE,22,4.9,4.9,75,0.00,,---,0.00,VWS V14.00,2013-03-17 10:13:00,
2013-03-17 05:18:00,31.4,24.4,29.61,NNE,22,6.4,6.4,75,0.00,,---,0.00,VWS V14.00,2013-03-17 10:18:00,
2013-03-17 05:23:00,31.2,24.2,29.60,NNE,22,7.3,9.1,75,0.00,,---,0.00,VWS V14.00,2013-03-17 10:23:00,
2013-03-17 05:28:00,31.2,24.2,29.60,NE,45,4.9,8.7,75,0.00,,---,0.00,VWS V14.00,2013-03-17 10:28:00,
2013-03-17 05:33:00,31.2,24.2,29.60,NE,45,5.3,7.6,75,0.00,,---,0.00,VWS V14.00,2013-03-17 10:33:00,
2013-03-17 05:38:00,31.2,24.2,29.60,NNE,22,8.0,8.0,75,0.00,,---,0.00,VWS V14.00,2013-03-17 10:38:00,
2013-03-17 05:43:00,31.2,24.2,29.60,NE,45,6.7,6.7,75,0.00,,---,0.00,VWS V14.00,2013-03-17 10:43:00,
2013-03-17 05:48:00,31.2,24.2,29.60,NNE,22,7.8,7.8,75,0.00,,---,0.00,VWS V14.00,2013-03-17 10:48:00,
2013-03-17 05:53:00,31.2,24.2,29.60,NNE,22,9.3,9.6,75,0.00,,---,0.00,VWS V14.00,2013-03-17 10:53:00,
2013-03-17 05:58:00,31.2,24.2,29.60,ENE,68,6.0,9.3,75,0.00,,---,0.00,VWS V14.00,2013-03-17 10:58:00,
2013-03-17 06:03:00,31.2,23.9,29.60,NE,45,10.0,10.0,74,0.00,,---,0.00,VWS V14.00,2013-03-17 11:03:00,
2013-03-17 06:08:00,31.1,23.8,29.60,ENE,68,6.4,7.8,74,0.00,,---,0.00,VWS V14.00,2013-03-17 11:08:00,
2013-03-17 06:13:00,31.1,24.1,29.60,NNE,22,6.7,6.7,75,0.00,,---,0.00,VWS V14.00,2013-03-17 11:13:00,
2013-03-17 06:18:00,31.1,23.8,29.62,NNE,22,10.0,10.0,74,0.00,,---,0.00,VWS V14.00,2013-03-17 11:18:00,
2013-03-17 06:23:00,31.1,23.8,29.62,NNE,22,8.7,9.3,74,0.00,,---,0.00,VWS V14.00,2013-03-17 11:23:00,
2013-03-17 06:28:00,31.1,23.8,29.61,NE,45,9.1,9.1,74,0.00,,---,0.00,VWS V14.00,2013-03-17 11:28:00,
2013-03-17 06:33:00,31.1,23.8,29.62,ENE,68,1.5,7.1,74,0.00,,---,0.00,VWS V14.00,2013-03-17 11:33:00,
2013-03-17 06:38:00,31.1,23.8,29.63,NE,45,2.0,2.0,74,0.00,,---,0.00,VWS V14.00,2013-03-17 11:38:00,
2013-03-17 06:43:00,30.9,23.6,29.63,NE,45,7.6,7.6,74,0.00,,---,0.00,VWS V14.00,2013-03-17 11:43:00,
2013-03-17 06:48:00,30.9,23.6,29.62,NE,45,6.9,8.7,74,0.00,,---,0.00,VWS V14.00,2013-03-17 11:48:00,
2013-03-17 06:53:00,30.9,23.9,29.63,NE,45,7.3,7.3,75,0.00,,---,0.00,VWS V14.00,2013-03-17 11:53:00,
2013-03-17 06:58:00,30.9,23.9,29.63,NE,45,5.3,9.6,75,0.00,,---,0.00,VWS V14.00,2013-03-17 11:58:00,
2013-03-17 07:03:00,30.9,23.9,29.63,NNE,22,4.4,4.6,75,0.00,,---,0.00,VWS V14.00,2013-03-17 12:03:00,
2013-03-17 07:08:00,30.9,23.9,29.63,NE,45,6.7,6.7,75,0.00,,---,0.00,VWS V14.00,2013-03-17 12:08:00,
2013-03-17 07:13:00,30.9,23.9,29.62,NE,45,3.8,3.8,75,0.00,,---,0.00,VWS V14.00,2013-03-17 12:13:00,
2013-03-17 07:18:00,30.9,23.9,29.62,NE,45,6.4,6.4,75,0.00,,---,0.00,VWS V14.00,2013-03-17 12:18:00,
2013-03-17 07:23:00,30.9,24.2,29.62,NE,45,8.5,8.5,76,0.00,,---,0.00,VWS V14.00,2013-03-17 12:23:00,
2013-03-17 07:28:00,30.9,24.2,29.62,NE,45,2.9,6.9,76,0.00,,---,0.00,VWS V14.00,2013-03-17 12:28:00,
2013-03-17 07:33:00,30.9,24.2,29.62,NE,45,8.5,8.5,76,0.00,,---,0.00,VWS V14.00,2013-03-17 12:33:00,
2013-03-17 07:38:00,30.9,24.2,29.62,ENE,68,2.0,7.3,76,0.00,,---,0.00,VWS V14.00,2013-03-17 12:38:00,
2013-03-17 07:43:00,31.1,24.8,29.62,NNE,22,5.5,7.3,77,0.00,,---,0.00,VWS V14.00,2013-03-17 12:43:00,
2013-03-17 07:48:00,31.1,24.8,29.62,NE,45,5.5,6.0,77,0.00,,---,0.00,VWS V14.00,2013-03-17 12:48:00,
2013-03-17 07:53:00,31.1,24.8,29.62,NNE,22,7.6,7.6,77,0.00,,---,0.00,VWS V14.00,2013-03-17 12:53:00,
2013-03-17 07:58:00,31.1,24.8,29.62,NE,45,10.2,10.2,77,0.00,,---,0.00,VWS V14.00,2013-03-17 12:58:00,
2013-03-17 08:03:00,31.2,24.8,29.62,NE,45,5.1,9.3,77,0.00,,---,0.00,VWS V14.00,2013-03-17 13:03:00,
2013-03-17 08:08:00,31.2,24.8,29.62,NE,45,5.3,7.1,77,0.00,,---,0.00,VWS V14.00,2013-03-17 13:08:00,
2013-03-17 08:13:00,31.2,24.8,29.62,NE,45,5.1,5.1,77,0.00,,---,0.00,VWS V14.00,2013-03-17 13:13:00,
2013-03-17 08:18:00,31.2,24.8,29.62,NE,45,4.2,5.8,77,0.00,,---,0.00,VWS V14.00,2013-03-17 13:18:00,
2013-03-17 08:23:00,31.6,25.2,29.62,NE,45,9.1,9.1,77,0.00,,---,0.00,VWS V14.00,2013-03-17 13:23:00,
2013-03-17 08:28:00,31.4,25.0,29.63,NNE,22,6.2,8.0,77,0.00,,---,0.00,VWS V14.00,2013-03-17 13:28:00,
2013-03-17 08:33:00,31.6,25.2,29.63,NNE,22,7.6,7.6,77,0.00,,---,0.00,VWS V14.00,2013-03-17 13:33:00,
2013-03-17 08:38:00,31.8,25.4,29.63,ENE,68,6.7,6.7,77,0.00,,---,0.00,VWS V14.00,2013-03-17 13:38:00,
2013-03-17 08:43:00,31.8,25.4,29.63,ENE,68,1.5,3.1,77,0.00,,---,0.00,VWS V14.00,2013-03-17 13:43:00,
2013-03-17 08:48:00,31.8,25.4,29.62,NNE,22,7.3,7.3,77,0.00,,---,0.00,VWS V14.00,2013-03-17 13:48:00,
2013-03-17 08:53:00,31.8,25.4,29.63,ENE,68,6.2,8.0,77,0.00,,---,0.00,VWS V14.00,2013-03-17 13:53:00,
2013-03-17 08:58:00,32.1,25.7,29.63,ENE,68,4.2,9.1,77,0.00,,---,0.00,VWS V14.00,2013-03-17 13:58:00,
2013-03-17 09:03:00,32.1,25.7,29.63,NE,45,5.8,8.9,77,0.00,,---,0.00,VWS V14.00,2013-03-17 14:03:00,
2013-03-17 09:08:00,32.3,25.9,29.63,NE,45,4.0,4.0,77,0.00,,---,0.00,VWS V14.00,2013-03-17 14:08:00,
2013-03-17 09:13:00,32.5,26.1,29.63,NE,45,7.6,7.6,77,0.00,,---,0.00,VWS V14.00,2013-03-17 14:13:00,
2013-03-17 09:18:00,32.9,26.5,29.63,NE,45,5.1,8.7,77,0.00,,---,0.00,VWS V14.00,2013-03-17 14:18:00,
2013-03-17 09:23:00,33.2,26.8,29.63,NE,45,8.0,8.0,77,0.00,,---,0.00,VWS V14.00,2013-03-17 14:23:00,
2013-03-17 09:28:00,33.4,26.7,29.63,NE,45,8.0,8.0,76,0.00,,---,0.00,VWS V14.00,2013-03-17 14:28:00,
2013-03-17 09:33:00,33.4,26.7,29.63,ENE,68,6.2,6.2,76,0.00,,---,0.00,VWS V14.00,2013-03-17 14:33:00,
2013-03-17 09:38:00,33.2,26.5,29.63,NE,45,8.7,8.7,76,0.00,,---,0.00,VWS V14.00,2013-03-17 14:38:00,
2013-03-17 09:43:00,33.0,26.3,29.63,NE,45,5.3,8.5,76,0.00,,---,0.00,VWS V14.00,2013-03-17 14:43:00,
2013-03-17 09:48:00,33.4,26.7,29.62,NE,45,8.5,8.5,76,0.00,,---,0.00,VWS V14.00,2013-03-17 14:48:00,
2013-03-17 09:53:00,33.4,26.7,29.62,NE,45,8.9,8.9,76,0.00,,---,0.00,VWS V14.00,2013-03-17 14:53:00,
2013-03-17 09:58:00,33.6,26.9,29.62,ENE,68,2.6,4.2,76,0.00,,---,0.00,VWS V14.00,2013-03-17 14:58:00,
2013-03-17 10:03:00,33.8,27.0,29.62,NE,45,3.3,7.1,76,0.00,,---,0.00,VWS V14.00,2013-03-17 15:03:00,
2013-03-17 10:08:00,33.9,27.5,29.63,ENE,68,8.9,8.9,77,0.00,,---,0.00,VWS V14.00,2013-03-17 15:08:00,
2013-03-17 10:13:00,34.3,27.9,29.62,NE,45,5.8,5.8,77,0.00,,---,0.00,VWS V14.00,2013-03-17 15:13:00,
2013-03-17 10:18:00,34.1,27.0,29.63,ENE,68,5.3,8.2,75,0.00,,---,0.00,VWS V14.00,2013-03-17 15:18:00,
2013-03-17 10:23:00,33.9,26.8,29.63,SE,135,0.0,6.2,75,0.00,,---,0.00,VWS V14.00,2013-03-17 15:23:00,
2013-03-17 10:28:00,34.1,26.7,29.63,ESE,112,11.4,11.4,74,0.00,,---,0.00,VWS V14.00,2013-03-17 15:28:00,
2013-03-17 10:33:00,34.3,26.9,29.62,ENE,68,5.1,5.1,74,0.00,,---,0.00,VWS V14.00,2013-03-17 15:33:00,
2013-03-17 10:38:00,34.3,26.9,29.63,NE,45,9.6,9.6,74,0.00,,---,0.00,VWS V14.00,2013-03-17 15:38:00,
2013-03-17 10:43:00,34.3,26.6,29.62,NE,45,4.6,4.6,73,0.00,,---,0.00,VWS V14.00,2013-03-17 15:43:00,
2013-03-17 10:48:00,34.5,26.4,29.62,NE,45,8.2,8.7,72,0.00,,---,0.00,VWS V14.00,2013-03-17 15:48:00,
2013-03-17 10:53:00,34.5,26.1,29.62,NE,45,8.2,8.2,71,0.00,,---,0.00,VWS V14.00,2013-03-17 15:53:00,
2013-03-17 10:58:00,34.7,26.3,29.62,ESE,112,3.3,4.9,71,0.00,,---,0.00,VWS V14.00,2013-03-17 15:58:00,
2013-03-17 11:03:00,34.8,26.4,29.62,NE,45,6.9,6.9,71,0.00,,---,0.00,VWS V14.00,2013-03-17 16:03:00,
2013-03-17 11:08:00,35.4,27.0,29.62,East,90,8.5,8.5,71,0.00,,---,0.00,VWS V14.00,2013-03-17 16:08:00,
2013-03-17 11:13:00,35.7,26.9,29.62,ESE,112,7.1,10.0,70,0.00,,---,0.00,VWS V14.00,2013-03-17 16:13:00,
2013-03-17 11:18:00,36.1,26.9,29.62,ENE,68,3.5,6.7,69,0.00,,---,0.00,VWS V14.00,2013-03-17 16:18:00,
2013-03-17 11:23:00,36.3,27.1,29.62,East,90,8.7,8.7,69,0.00,,---,0.00,VWS V14.00,2013-03-17 16:23:00,
2013-03-17 11:28:00,37.0,27.4,29.61,NE,45,10.5,11.6,68,0.00,,---,0.00,VWS V14.00,2013-03-17 16:28:00,
2013-03-17 11:33:00,37.7,28.1,29.61,ENE,68,5.5,8.7,68,0.00,,---,0.00,VWS V14.00,2013-03-17 16:33:00,
2013-03-17 11:38:00,38.1,27.8,29.61,NE,45,4.4,4.4,66,0.00,,---,0.00,VWS V14.00,2013-03-17 16:38:00,
2013-03-17 11:43:00,38.3,27.6,29.61,ENE,68,8.9,8.9,65,0.00,,---,0.00,VWS V14.00,2013-03-17 16:43:00,
2013-03-17 11:48:00,37.9,27.2,29.61,ESE,112,6.0,9.1,65,0.00,,---,0.00,VWS V14.00,2013-03-17 16:48:00,
2013-03-17 11:53:00,37.9,27.2,29.61,ENE,68,8.7,9.6,65,0.00,,---,0.00,VWS V14.00,2013-03-17 16:53:00,
2013-03-17 11:58:00,37.9,27.6,29.61,NE,45,3.3,9.1,66,0.00,,---,0.00,VWS V14.00,2013-03-17 16:58:00,
2013-03-17 12:03:00,38.4,27.7,29.61,NE,45,8.2,8.2,65,0.00,,---,0.00,VWS V14.00,2013-03-17 17:03:00,
2013-03-17 12:08:00,38.4,27.3,29.61,NE,45,6.4,6.4,64,0.00,,---,0.00,VWS V14.00,2013-03-17 17:08:00,
2013-03-17 12:13:00,38.8,27.7,29.60,East,90,4.0,7.6,64,0.00,,---,0.00,VWS V14.00,2013-03-17 17:13:00,
2013-03-17 12:18:00,38.8,28.1,29.60,ENE,68,12.3,12.3,65,0.00,,---,0.00,VWS V14.00,2013-03-17 17:18:00,
2013-03-17 12:23:00,39.0,28.2,29.60,ENE,68,4.6,5.5,65,0.00,,---,0.00,VWS V14.00,2013-03-17 17:23:00,
2013-03-17 12:28:00,39.5,28.4,29.59,ENE,68,8.2,8.7,64,0.00,,---,0.00,VWS V14.00,2013-03-17 17:28:00,
2013-03-17 12:33:00,39.9,28.7,29.59,ENE,68,10.5,10.5,64,0.00,,---,0.00,VWS V14.00,2013-03-17 17:33:00,
2013-03-17 12:38:00,40.2,28.2,29.59,NE,45,8.5,8.5,62,0.00,,---,0.00,VWS V14.00,2013-03-17 17:38:00,
2013-03-17 12:43:00,40.2,27.8,29.59,ESE,112,6.4,7.1,61,0.00,,---,0.00,VWS V14.00,2013-03-17 17:43:00,
2013-03-17 12:48:00,40.2,28.2,29.58,NE,45,11.6,11.6,62,0.00,,---,0.00,VWS V14.00,2013-03-17 17:48:00,
2013-03-17 12:53:00,40.2,28.2,29.58,NNE,22,5.3,5.3,62,0.00,,---,0.00,VWS V14.00,2013-03-17 17:53:00,
2013-03-17 12:58:00,40.4,28.4,29.58,ENE,68,6.2,9.6,62,0.00,,---,0.00,VWS V14.00,2013-03-17 17:58:00,
2013-03-17 13:03:00,40.2,28.2,29.58,ESE,112,6.2,10.2,62,0.00,,---,0.00,VWS V14.00,2013-03-17 18:03:00,
2013-03-17 13:08:00,40.6,28.6,29.57,East,90,9.1,9.1,62,0.00,,---,0.00,VWS V14.00,2013-03-17 18:08:00,
2013-03-17 13:13:00,41.0,29.0,29.57,ESE,112,12.3,12.3,62,0.00,,---,0.00,VWS V14.00,2013-03-17 18:13:00,
2013-03-17 13:18:00,41.3,28.9,29.56,ENE,68,3.1,10.5,61,0.00,,---,0.00,VWS V14.00,2013-03-17 18:18:00,
2013-03-17 13:23:00,41.0,28.2,29.56,ENE,68,5.3,5.3,60,0.00,,---,0.00,VWS V14.00,2013-03-17 18:23:00,
2013-03-17 13:28:00,41.0,28.6,29.56,NE,45,7.3,9.8,61,0.00,,---,0.00,VWS V14.00,2013-03-17 18:28:00,
2013-03-17 13:33:00,40.8,28.8,29.56,East,90,8.0,11.1,62,0.00,,---,0.00,VWS V14.00,2013-03-17 18:33:00,
2013-03-17 13:38:00,41.0,29.0,29.56,NE,45,8.0,8.0,62,0.00,,---,0.00,VWS V14.00,2013-03-17 18:38:00,
2013-03-17 13:43:00,41.5,29.1,29.55,ESE,112,7.8,7.8,61,0.00,,---,0.00,VWS V14.00,2013-03-17 18:43:00,
2013-03-17 13:48:00,41.7,29.3,29.55,East,90,5.5,8.0,61,0.00,,---,0.00,VWS V14.00,2013-03-17 18:48:00,
2013-03-17 13:53:00,41.9,29.5,29.54,NE,45,6.0,6.0,61,0.00,,---,0.00,VWS V14.00,2013-03-17 18:53:00,
2013-03-17 13:58:00,42.0,29.1,29.54,NE,45,11.6,11.6,60,0.00,,---,0.00,VWS V14.00,2013-03-17 18:58:00,
2013-03-17 14:03:00,42.0,29.1,29.54,East,90,9.1,9.1,60,0.00,,---,0.00,VWS V14.00,2013-03-17 19:03:00,
2013-03-17 14:08:00,42.0,29.1,29.53,NNE,22,9.1,9.1,60,0.00,,---,0.00,VWS V14.00,2013-03-17 19:08:00,
2013-03-17 14:14:00,41.9,29.0,29.53,NE,45,3.5,9.6,60,0.00,,---,0.00,VWS V14.00,2013-03-17 19:14:00,
2013-03-17 14:19:00,42.0,29.5,29.53,SE,135,8.2,8.2,61,0.00,,---,0.00,VWS V14.00,2013-03-17 19:19:00,
2013-03-17 14:24:00,42.0,29.1,29.52,East,90,12.9,12.9,60,0.00,,---,0.00,VWS V14.00,2013-03-17 19:24:00,
2013-03-17 14:29:00,42.2,29.3,29.52,ENE,68,7.8,7.8,60,0.00,,---,0.00,VWS V14.00,2013-03-17 19:29:00,
2013-03-17 14:34:00,42.4,29.9,29.51,ESE,112,8.2,8.2,61,0.00,,---,0.00,VWS V14.00,2013-03-17 19:34:00,
2013-03-17 14:40:00,42.6,29.7,29.51,NE,45,4.0,4.0,60,0.00,,---,0.00,VWS V14.00,2013-03-17 19:40:00,
2013-03-17 14:45:00,42.4,29.1,29.51,NE,45,6.2,9.6,59,0.00,,---,0.00,VWS V14.00,2013-03-17 19:45:00,
2013-03-17 14:50:00,42.0,28.7,29.51,ESE,112,8.0,8.0,59,0.00,,---,0.00,VWS V14.00,2013-03-17 19:50:00,
2013-03-17 14:55:00,42.0,29.1,29.51,ENE,68,8.5,8.5,60,0.00,,---,0.00,VWS V14.00,2013-03-17 19:55:00,
2013-03-17 15:00:00,41.9,29.5,29.50,NE,45,5.1,7.8,61,0.00,,---,0.00,VWS V14.00,2013-03-17 20:00:00,
2013-03-17 15:05:00,41.5,28.7,29.50,NE,45,6.2,10.2,60,0.00,,---,0.00,VWS V14.00,2013-03-17 20:05:00,
2013-03-17 15:10:00,41.5,28.7,29.50,ENE,68,5.5,9.8,60,0.00,,---,0.00,VWS V14.00,2013-03-17 20:10:00,
2013-03-17 15:15:00,41.3,28.9,29.51,ENE,68,3.5,4.6,61,0.00,,---,0.00,VWS V14.00,2013-03-17 20:15:00,
2013-03-17 15:20:00,41.3,28.9,29.51,NE,45,12.0,12.0,61,0.00,,---,0.00,VWS V14.00,2013-03-17 20:20:00,
2013-03-17 15:25:00,41.3,28.9,29.51,ENE,68,7.1,7.1,61,0.00,,---,0.00,VWS V14.00,2013-03-17 20:25:00,
2013-03-17 15:30:00,41.3,28.9,29.51,ENE,68,7.1,9.1,61,0.00,,---,0.00,VWS V14.00,2013-03-17 20:30:00,
2013-03-17 15:35:00,41.1,28.7,29.51,NNE,22,7.1,8.7,61,0.00,,---,0.00,VWS V14.00,2013-03-17 20:35:00,
2013-03-17 15:40:00,41.0,28.6,29.51,NE,45,4.9,4.9,61,0.00,,---,0.00,VWS V14.00,2013-03-17 20:40:00,
2013-03-17 15:45:00,40.8,28.8,29.50,East,90,3.8,9.8,62,0.00,,---,0.00,VWS V14.00,2013-03-17 20:45:00,
2013-03-17 15:50:00,40.6,28.6,29.50,ENE,68,2.6,6.2,62,0.00,,---,0.00,VWS V14.00,2013-03-17 20:50:00,
2013-03-17 15:56:00,40.4,28.4,29.50,ENE,68,10.2,10.2,62,0.00,,---,0.00,VWS V14.00,2013-03-17 20:56:00,
2013-03-17 16:02:00,40.2,28.6,29.50,ESE,112,5.1,10.0,63,0.00,,---,0.00,VWS V14.00,2013-03-17 21:02:00,
2013-03-17 16:07:00,40.4,28.8,29.50,ENE,68,8.2,10.0,63,0.00,,---,0.00,VWS V14.00,2013-03-17 21:07:00,
2013-03-17 16:12:00,40.2,29.0,29.50,ENE,68,2.2,6.7,64,0.00,,---,0.00,VWS V14.00,2013-03-17 21:12:00,
2013-03-17 16:17:00,40.2,29.0,29.49,ESE,112,0.0,3.3,64,0.00,,---,0.00,VWS V14.00,2013-03-17 21:17:00,
2013-03-17 16:23:00,40.2,29.0,29.49,ESE,112,6.4,8.7,64,0.00,,---,0.00,VWS V14.00,2013-03-17 21:23:00,
2013-03-17 16:28:00,40.1,28.5,29.49,East,90,3.1,4.6,63,0.00,,---,0.00,VWS V14.00,2013-03-17 21:28:00,
2013-03-17 16:33:00,40.1,28.5,29.49,ENE,68,0.0,7.3,63,0.00,,---,0.00,VWS V14.00,2013-03-17 21:33:00,
2013-03-17 16:38:00,39.9,28.7,29.48,NE,45,5.8,9.8,64,0.00,,---,0.00,VWS V14.00,2013-03-17 21:38:00,
2013-03-17 16:43:00,39.9,28.3,29.48,East,90,5.5,5.5,63,0.00,,---,0.00,VWS V14.00,2013-03-17 21:43:00,
2013-03-17 16:48:00,40.1,28.9,29.48,NNE,22,8.0,8.0,64,0.00,,---,0.00,VWS V14.00,2013-03-17 21:48:00,
2013-03-17 16:53:00,40.2,29.0,29.48,NE,45,3.8,3.8,64,0.00,,---,0.00,VWS V14.00,2013-03-17 21:53:00,
2013-03-17 16:58:00,40.1,28.9,29.48,ENE,68,9.3,9.3,64,0.00,,---,0.00,VWS V14.00,2013-03-17 21:58:00,
2013-03-17 17:03:00,40.1,28.9,29.48,East,90,4.0,4.0,64,0.00,,---,0.00,VWS V14.00,2013-03-17 22:03:00,
2013-03-17 17:08:00,40.1,28.9,29.47,ESE,112,4.4,4.4,64,0.00,,---,0.00,VWS V14.00,2013-03-17 22:08:00,
2013-03-17 17:13:00,39.9,28.7,29.47,ESE,112,2.0,2.0,64,0.00,,---,0.00,VWS V14.00,2013-03-17 22:13:00,
2013-03-17 17:18:00,39.9,28.7,29.47,ENE,68,9.1,9.1,64,0.00,,---,0.00,VWS V14.00,2013-03-17 22:18:00,
2013-03-17 17:23:00,39.7,28.5,29.47,ESE,112,2.9,2.9,64,0.00,,---,0.00,VWS V14.00,2013-03-17 22:23:00,
2013-03-17 17:28:00,39.7,28.5,29.47,East,90,2.9,6.2,64,0.00,,---,0.00,VWS V14.00,2013-03-17 22:28:00,
2013-03-17 17:33:00,39.5,28.7,29.47,SE,135,5.1,5.1,65,0.00,,---,0.00,VWS V14.00,2013-03-17 22:33:00,
2013-03-17 17:38:00,39.7,28.9,29.47,ENE,68,0.0,0.0,65,0.00,,---,0.00,VWS V14.00,2013-03-17 22:38:00,
2013-03-17 17:43:00,39.5,28.7,29.47,NE,45,0.0,6.0,65,0.00,,---,0.00,VWS V14.00,2013-03-17 22:43:00,
2013-03-17 17:48:00,39.3,28.9,29.45,ENE,68,2.4,6.0,66,0.00,,---,0.00,VWS V14.00,2013-03-17 22:48:00,
2013-03-17 17:53:00,39.3,28.9,29.45,East,90,4.4,4.4,66,0.00,,---,0.00,VWS V14.00,2013-03-17 22:53:00,
2013-03-17 17:58:00,39.3,29.3,29.44,East,90,8.5,8.5,67,0.00,,---,0.00,VWS V14.00,2013-03-17 22:58:00,
2013-03-17 18:03:00,39.3,29.3,29.45,East,90,5.5,11.8,67,0.00,,---,0.00,VWS V14.00,2013-03-17 23:03:00,
2013-03-17 18:08:00,39.3,29.3,29.45,ENE,68,4.2,7.8,67,0.00,,---,0.00,VWS V14.00,2013-03-17 23:08:00,
2013-03-17 18:13:00,39.0,29.0,29.45,ENE,68,3.8,6.7,67,0.00,,---,0.00,VWS V14.00,2013-03-17 23:13:00,
2013-03-17 18:18:00,39.0,29.0,29.45,NE,45,8.9,8.9,67,0.00,,---,0.00,VWS V14.00,2013-03-17 23:18:00,
2013-03-17 18:23:00,39.0,29.0,29.45,SE,135,2.4,9.1,67,0.00,,---,0.00,VWS V14.00,2013-03-17 23:23:00,
2013-03-17 18:28:00,39.0,29.0,29.45,ESE,112,10.5,10.5,67,0.00,,---,0.00,VWS V14.00,2013-03-17 23:28:00,
2013-03-17 18:33:00,39.0,29.0,29.45,ESE,112,6.7,6.7,67,0.00,,---,0.00,VWS V14.00,2013-03-17 23:33:00,
2013-03-17 18:38:00,38.8,28.8,29.46,ENE,68,0.0,3.3,67,0.00,,---,0.00,VWS V14.00,2013-03-17 23:38:00,
2013-03-17 18:43:00,38.8,28.8,29.46,ENE,68,7.3,7.3,67,0.00,,---,0.00,VWS V14.00,2013-03-17 23:43:00,
2013-03-17 18:49:00,38.8,29.2,29.46,ENE,68,8.2,8.2,68,0.00,,---,0.00,VWS V14.00,2013-03-17 23:49:00,
2013-03-17 18:54:00,38.8,29.2,29.45,ENE,68,0.0,2.4,68,0.00,,---,0.00,VWS V14.00,2013-03-17 23:54:00,
2013-03-17 18:59:00,38.8,29.2,29.45,East,90,4.9,5.5,68,0.00,,---,0.00,VWS V14.00,2013-03-17 23:59:00,
2013-03-17 19:04:00,38.8,29.2,29.45,ESE,112,1.3,4.9,68,0.00,,---,0.00,VWS V14.00,2013-03-18 00:04:00,
2013-03-17 19:09:00,38.4,28.8,29.45,East,90,3.1,3.1,68,0.00,,---,0.00,VWS V14.00,2013-03-18 00:09:00,
2013-03-17 19:14:00,38.4,29.1,29.45,NE,45,5.5,5.5,69,0.00,,---,0.00,VWS V14.00,2013-03-18 00:14:00,
2013-03-17 19:19:00,38.4,29.1,29.45,East,90,0.0,7.1,69,0.00,,---,0.00,VWS V14.00,2013-03-18 00:19:00,
2013-03-17 19:24:00,38.3,29.0,29.46,ESE,112,0.0,0.0,69,0.00,,---,0.00,VWS V14.00,2013-03-18 00:24:00,
2013-03-17 19:29:00,38.1,29.2,29.45,ESE,112,8.2,8.2,70,0.00,,---,0.00,VWS V14.00,2013-03-18 00:29:00,
2013-03-17 19:34:00,37.9,29.4,29.46,East,90,0.0,7.6,71,0.00,,---,0.00,VWS V14.00,2013-03-18 00:34:00,
2013-03-17 19:39:00,37.5,29.0,29.46,NNE,22,2.4,2.4,71,0.00,,---,0.00,VWS V14.00,2013-03-18 00:39:00,
2013-03-17 19:44:00,37.2,29.4,29.44,East,90,7.8,7.8,73,0.00,,---,0.00,VWS V14.00,2013-03-18 00:44:00,
2013-03-17 19:49:00,36.6,29.1,29.44,East,90,5.1,13.1,74,0.00,,---,0.00,VWS V14.00,2013-03-18 00:49:00,
2013-03-17 19:55:00,36.1,29.3,29.43,ENE,68,0.0,0.0,76,0.00,,---,0.00,VWS V14.00,2013-03-18 00:55:00,
2013-03-17 20:00:00,35.7,29.2,29.43,ENE,68,8.2,8.2,77,0.00,,---,0.00,VWS V14.00,2013-03-18 01:00:00,
2013-03-17 20:05:00,35.4,29.2,29.44,ENE,68,12.3,12.3,78,0.00,,---,0.00,VWS V14.00,2013-03-18 01:05:00,
2013-03-17 20:10:00,35.2,29.4,29.44,ENE,68,0.0,2.0,79,0.00,,---,0.00,VWS V14.00,2013-03-18 01:10:00,
2013-03-17 20:15:00,35.2,29.7,29.43,ENE,68,10.0,10.0,80,0.00,,---,0.00,VWS V14.00,2013-03-18 01:15:00,
2013-03-17 20:20:00,34.8,29.6,29.41,ENE,68,1.7,8.7,81,0.00,,---,0.00,VWS V14.00,2013-03-18 01:20:00,
2013-03-17 20:25:00,34.8,29.9,29.41,ESE,112,3.3,3.3,82,0.00,,---,0.00,VWS V14.00,2013-03-18 01:25:00,
2013-03-17 20:30:00,34.7,29.8,29.41,ESE,112,5.8,5.8,82,0.00,,---,0.00,VWS V14.00,2013-03-18 01:30:00,
2013-03-17 20:35:00,34.7,29.8,29.42,NE,45,2.9,6.2,82,0.00,,---,0.00,VWS V14.00,2013-03-18 01:35:00,
2013-03-17 20:40:00,34.7,30.1,29.42,NE,45,4.4,8.0,83,0.00,,---,0.00,VWS V14.00,2013-03-18 01:40:00,
2013-03-17 20:45:00,34.7,30.1,29.41,North,0,0.0,9.8,83,0.00,,---,0.00,VWS V14.00,2013-03-18 01:45:00,
2013-03-17 20:50:00,34.7,30.4,29.41,NE,45,5.1,5.8,84,0.00,,---,0.00,VWS V14.00,2013-03-18 01:50:00,
2013-03-17 20:55:00,34.7,30.1,29.41,ENE,68,0.0,4.6,83,0.00,,---,0.00,VWS V14.00,2013-03-18 01:55:00,
2013-03-17 21:00:00,34.5,30.2,29.42,NE,45,1.1,6.4,84,0.00,,---,0.00,VWS V14.00,2013-03-18 02:00:00,
2013-03-17 21:05:00,34.7,30.4,29.42,ENE,68,0.0,0.0,84,0.00,,---,0.00,VWS V14.00,2013-03-18 02:05:00,
2013-03-17 21:10:00,34.7,30.4,29.42,NE,45,0.0,3.8,84,0.00,,---,0.00,VWS V14.00,2013-03-18 02:10:00,
2013-03-17 21:15:00,34.8,30.5,29.42,East,90,6.0,6.0,84,0.00,,---,0.00,VWS V14.00,2013-03-18 02:15:00,
2013-03-17 21:20:00,34.8,30.5,29.41,ENE,68,2.9,6.2,84,0.00,,---,0.00,VWS V14.00,2013-03-18 02:20:00,
2013-03-17 21:25:00,34.8,30.2,29.40,NE,45,1.7,4.4,83,0.00,,---,0.00,VWS V14.00,2013-03-18 02:25:00,
2013-03-17 21:30:00,34.7,30.1,29.40,ESE,112,4.0,10.9,83,0.00,,---,0.00,VWS V14.00,2013-03-18 02:30:00,
2013-03-17 21:35:00,34.5,29.9,29.40,ENE,68,4.2,4.2,83,0.00,,---,0.00,VWS V14.00,2013-03-18 02:35:00,
2013-03-17 21:40:00,34.5,29.9,29.40,ENE,68,8.2,10.5,83,0.00,,---,0.00,VWS V14.00,2013-03-18 02:40:00,
2013-03-17 21:45:00,34.5,29.9,29.40,ENE,68,0.0,2.4,83,0.00,,---,0.00,VWS V14.00,2013-03-18 02:45:00,
2013-03-17 21:50:00,34.3,29.7,29.40,NE,45,1.5,4.6,83,0.00,,---,0.00,VWS V14.00,2013-03-18 02:50:00,
2013-03-17 21:55:00,34.3,29.7,29.40,NE,45,0.0,0.0,83,0.00,,---,0.00,VWS V14.00,2013-03-18 02:55:00,
2013-03-17 22:00:00,34.3,29.7,29.40,ESE,112,7.8,7.8,83,0.00,,---,0.00,VWS V14.00,2013-03-18 03:00:00,
2013-03-17 22:05:00,34.3,29.7,29.39,ENE,68,6.0,6.0,83,0.00,,---,0.00,VWS V14.00,2013-03-18 03:05:00,
2013-03-17 22:10:00,34.3,29.7,29.40,ENE,68,3.3,3.3,83,0.00,,---,0.00,VWS V14.00,2013-03-18 03:10:00,
2013-03-17 22:15:00,34.3,29.7,29.40,ENE,68,0.0,2.0,83,0.00,,---,0.00,VWS V14.00,2013-03-18 03:15:00,
2013-03-17 22:20:00,34.3,29.7,29.39,ENE,68,0.0,1.3,83,0.00,,---,0.00,VWS V14.00,2013-03-18 03:20:00,
2013-03-17 22:25:00,34.3,29.7,29.39,NE,45,0.0,0.0,83,0.02,,---,0.02,VWS V14.00,2013-03-18 03:25:00,
2013-03-17 22:30:00,34.3,29.7,29.39,ENE,68,0.0,8.2,83,0.02,,---,0.02,VWS V14.00,2013-03-18 03:30:00,
2013-03-17 22:35:00,34.3,29.7,29.39,NE,45,0.0,0.0,83,0.02,,---,0.02,VWS V14.00,2013-03-18 03:35:00,
2013-03-17 22:40:00,34.3,29.7,29.39,NE,45,3.8,3.8,83,0.02,,---,0.02,VWS V14.00,2013-03-18 03:40:00,
2013-03-17 22:45:00,34.3,29.7,29.39,ENE,68,0.0,0.0,83,0.02,,---,0.02,VWS V14.00,2013-03-18 03:45:00,
2013-03-17 22:50:00,34.3,30.0,29.38,NE,45,0.0,0.0,84,0.02,,---,0.02,VWS V14.00,2013-03-18 03:50:00,
2013-03-17 22:55:00,34.3,30.0,29.38,ENE,68,0.0,0.0,84,0.02,,---,0.02,VWS V14.00,2013-03-18 03:55:00,
2013-03-17 23:00:00,34.3,29.7,29.38,ENE,68,0.0,0.0,83,0.02,,---,0.02,VWS V14.00,2013-03-18 04:00:00,
2013-03-17 23:02:00,34.3,29.7,29.38,NE,45,0.0,0.0,83,0.02,,---,0.02,VWS V14.00,2013-03-18 04:02:00,
2013-03-17 23:03:00,34.3,29.7,29.38,ENE,68,0.0,0.0,83,0.02,,---,0.02,VWS V14.00,2013-03-18 04:03:00,
2013-03-17 23:05:00,34.3,29.7,29.38,East,90,2.0,2.0,83,0.02,,---,0.02,VWS V14.00,2013-03-18 04:05:00,
2013-03-17 23:10:00,34.5,29.9,29.37,NE,45,4.6,4.6,83,0.02,,---,0.02,VWS V14.00,2013-03-18 04:10:00,
2013-03-17 23:15:00,34.3,30.0,29.37,NE,45,0.0,0.0,84,0.02,,---,0.02,VWS V14.00,2013-03-18 04:15:00,
2013-03-17 23:20:00,34.3,30.0,29.37,NE,45,2.9,3.1,84,0.02,,---,0.02,VWS V14.00,2013-03-18 04:20:00,
2013-03-17 23:25:00,34.3,30.0,29.37,NE,45,3.8,3.8,84,0.00,,---,0.02,VWS V14.00,2013-03-18 04:25:00,
2013-03-17 23:30:00,34.3,30.0,29.37,NE,45,2.0,2.9,84,0.02,,---,0.04,VWS V14.00,2013-03-18 04:30:00,
2013-03-17 23:35:00,34.3,30.0,29.37,NE,45,0.0,0.0,84,0.02,,---,0.04,VWS V14.00,2013-03-18 04:35:00,
2013-03-17 23:40:00,34.3,30.0,29.37,NE,45,1.1,4.4,84,0.02,,---,0.04,VWS V14.00,2013-03-18 04:40:00,
2013-03-17 23:45:00,34.3,30.3,29.37,East,90,4.4,4.4,85,0.02,,---,0.04,VWS V14.00,2013-03-18 04:45:00,
2013-03-17 23:50:00,34.3,30.3,29.37,East,90,4.6,4.6,85,0.02,,---,0.04,VWS V14.00,2013-03-18 04:50:00,
2013-03-17 23:55:00,34.3,30.3,29.36,NE,45,3.1,5.3,85,0.02,,---,0.04,VWS V14.00,2013-03-18 04:55:00,